Time;durP1;ratioP1;P1;durP2;ratioP2;P2;SDS_P1;SDS_P2;PMS_P1;PMS_P2;Temp;Humidity;BMP_temperature;BMP_pressure;BME280_temperature;BME280_humidity;BME280_pressure;Samples;Min_cycle;Max_cycle;Signal;HPM_P1;HPM_P2
2023/11/17 00:02:26;;;;;;;8.02;3.88;;;;;;;6.35;66.58;99647.53;6168902;23;20001;-94
2023/11/17 00:04:52;;;;;;;6.82;3.90;;;;;;;6.32;67.00;99653.34;6143589;23;20000;-95
2023/11/17 00:07:20;;;;;;;8.35;4.00;;;;;;;6.17;67.15;99627.09;6144197;23;20055;-96
2023/11/17 00:09:46;;;;;;;6.07;3.45;;;;;;;6.21;66.69;99615.69;6143689;23;19997;-96
2023/11/17 00:12:12;;;;;;;7.63;4.10;;;;;;;6.32;66.24;99615.91;6144302;23;20011;-96
2023/11/17 00:14:42;;;;;;;5.10;3.00;;;;;;;6.44;65.91;99604.16;6143725;23;20016;-95
2023/11/17 00:17:10;;;;;;;3.22;2.17;;;;;;;6.66;64.96;99614.22;6144278;23;20004;-96
2023/11/17 00:19:39;;;;;;;7.35;3.80;;;;;;;6.57;65.59;99600.41;6146338;23;20008;-96
2023/11/17 00:22:04;;;;;;;6.35;3.70;;;;;;;6.35;65.83;99586.03;6144508;23;20001;-95
2023/11/17 00:24:30;;;;;;;8.38;3.70;;;;;;;6.35;65.65;99578.84;6143982;23;20067;-96
2023/11/17 00:26:59;;;;;;;9.45;3.95;;;;;;;6.42;65.27;99592.88;6142998;23;19997;-96
2023/11/17 00:29:24;;;;;;;5.22;3.33;;;;;;;6.48;65.08;99580.44;6145004;23;20005;-96
2023/11/17 00:31:52;;;;;;;3.35;2.60;;;;;;;6.53;64.78;99575.16;6143069;23;20000;-95
2023/11/17 00:34:18;;;;;;;2.78;1.83;;;;;;;6.69;64.10;99576.28;6169349;23;20016;-95
2023/11/17 00:36:47;;;;;;;4.47;1.90;;;;;;;6.75;63.63;99559.28;6142584;23;20009;-95
2023/11/17 00:39:14;;;;;;;3.22;1.85;;;;;;;6.90;63.49;99556.09;6145482;23;20408;-94
2023/11/17 00:41:42;;;;;;;7.45;3.65;;;;;;;7.15;63.11;99568.31;6144173;23;20024;-96
2023/11/17 00:44:11;;;;;;;7.07;3.22;;;;;;;7.09;63.86;99546.78;6145054;23;19996;-96
2023/11/17 00:46:37;;;;;;;3.50;2.30;;;;;;;7.08;63.96;99550.53;6192608;23;19997;-95
2023/11/17 00:49:06;;;;;;;2.80;1.90;;;;;;;7.02;64.25;99535.41;6143778;23;19999;-96
2023/11/17 00:51:33;;;;;;;4.63;2.80;;;;;;;6.99;63.99;99519.84;6169312;23;20000;-96
2023/11/17 00:54:00;;;;;;;6.03;3.17;;;;;;;7.14;63.85;99535.38;6145050;23;20027;-95
2023/11/17 00:56:34;;;;;;;4.35;2.50;;;;;;;7.11;63.43;99532.34;6145891;23;20470;-96
2023/11/17 00:59:00;;;;;;;3.45;2.10;;;;;;;7.09;62.15;99522.69;6169949;23;20083;-95
2023/11/17 01:01:27;;;;;;;2.80;1.98;;;;;;;7.25;61.79;99529.13;6145023;23;20008;-95
2023/11/17 01:03:52;;;;;;;3.78;2.42;;;;;;;7.14;62.14;99511.28;6168925;23;20004;-96
2023/11/17 01:06:21;;;;;;;4.68;3.40;;;;;;;7.08;63.29;99498.84;6144608;23;20028;-95
2023/11/17 01:08:47;;;;;;;6.65;3.30;;;;;;;6.95;64.10;99493.78;6144914;23;20001;-95
2023/11/17 01:11:13;;;;;;;5.78;3.03;;;;;;;6.89;64.29;99490.22;6143725;23;20051;-95
2023/11/17 01:13:40;;;;;;;2.97;1.90;;;;;;;6.99;63.08;99497.59;6143506;23;20068;-96
2023/11/17 01:16:06;;;;;;;3.33;2.08;;;;;;;7.17;62.14;99528.72;6192151;23;20446;-95
2023/11/17 01:18:34;;;;;;;3.20;1.92;;;;;;;7.03;62.17;99496.06;6167989;23;20004;-95
2023/11/17 01:20:59;;;;;;;4.15;2.22;;;;;;;6.88;62.39;99468.00;6143890;23;20016;-96
2023/11/17 01:23:27;;;;;;;3.63;2.03;;;;;;;6.91;64.01;99481.94;6143946;23;20351;-95
2023/11/17 01:25:52;;;;;;;4.28;2.25;;;;;;;6.71;64.71;99463.69;6144389;23;20000;-95
2023/11/17 01:28:18;;;;;;;5.15;2.17;;;;;;;6.72;64.75;99467.97;6144176;23;20008;-95
2023/11/17 01:30:43;;;;;;;3.35;2.42;;;;;;;6.62;65.10;99457.88;6168614;23;20023;-96
2023/11/17 01:33:09;;;;;;;6.25;2.50;;;;;;;6.81;64.74;99459.31;6143025;23;20000;-96
2023/11/17 01:35:35;;;;;;;2.83;1.90;;;;;;;6.81;63.26;99447.81;6144002;23;20008;-96
2023/11/17 01:38:01;;;;;;;4.53;2.28;;;;;;;6.80;63.21;99420.22;6143657;23;20068;-96
2023/11/17 01:40:30;;;;;;;2.45;1.90;;;;;;;6.90;62.68;99430.28;6142475;23;20004;-96
2023/11/17 01:43:11;;;;;;;3.50;2.33;;;;;;;7.00;61.90;99446.50;6144145;23;20052;-96
2023/11/17 01:45:37;;;;;;;3.00;2.20;;;;;;;6.89;62.16;99426.00;6147443;23;20028;-96
2023/11/17 01:48:03;;;;;;;2.78;1.75;;;;;;;6.96;62.08;99432.00;6145417;23;19993;-95
2023/11/17 01:50:30;;;;;;;2.92;2.08;;;;;;;6.95;62.11;99421.50;6145766;23;20001;-96
2023/11/17 01:52:55;;;;;;;2.95;1.90;;;;;;;6.76;62.98;99403.00;6169952;23;19996;-95
2023/11/17 01:55:21;;;;;;;2.38;1.63;;;;;;;6.92;63.18;99427.38;6145501;23;20360;-96
2023/11/17 01:57:48;;;;;;;4.95;1.73;;;;;;;6.74;63.47;99396.28;6170040;23;20321;-95
2023/11/17 02:00:14;;;;;;;3.85;2.20;;;;;;;6.98;63.38;99419.16;6145855;23;20004;-96
2023/11/17 02:02:48;;;;;;;4.68;2.08;;;;;;;6.87;62.55;99390.63;6169121;23;20364;-96
2023/11/17 02:05:17;;;;;;;4.18;2.00;;;;;;;6.85;62.83;99374.81;6171910;23;20000;-96
2023/11/17 02:08:04;;;;;;;3.47;2.28;;;;;;;6.95;63.52;99405.44;6170998;23;20005;-95
2023/11/17 02:10:59;;;;;;;6.60;2.17;;;;;;;6.99;63.33;99386.00;6194408;23;20001;-95
2023/11/17 02:13:31;;;;;;;4.78;2.22;;;;;;;6.71;64.24;99346.75;6148914;23;20021;-94
2023/11/17 02:16:01;;;;;;;3.83;2.28;;;;;;;6.88;63.91;99368.97;6147787;23;20008;-95
2023/11/17 02:18:28;;;;;;;4.03;2.67;;;;;;;6.76;65.33;99356.72;6147818;23;20008;-96
2023/11/17 02:20:57;;;;;;;4.20;2.45;;;;;;;6.54;64.78;99330.72;6146239;23;20001;-96
2023/11/17 02:23:25;;;;;;;4.72;3.00;;;;;;;6.63;65.75;99331.09;6146231;23;20001;-96
2023/11/17 02:25:55;;;;;;;4.95;2.92;;;;;;;6.70;65.32;99329.06;6146373;23;19997;-96
2023/11/17 02:28:59;;;;;;;3.17;2.25;;;;;;;6.97;63.89;99339.94;6171081;23;19997;-96
2023/11/17 02:31:45;;;;;;;;;;;;;;;;;;;;;
2023/11/17 02:34:16;;;;;;;4.18;2.20;;;;;;;7.08;62.98;99327.50;6177132;23;20035;-96
2023/11/17 02:36:42;;;;;;;2.75;1.77;;;;;;;6.92;62.71;99298.91;6146024;23;20012;-96
2023/11/17 02:39:25;;;;;;;3.05;1.80;;;;;;;6.86;62.80;99280.06;6169069;23;20079;-96
2023/11/17 02:41:57;;;;;;;1.80;1.50;;;;;;;6.97;62.74;99286.41;6172477;23;20509;-96
2023/11/17 02:44:32;;;;;;;4.55;1.33;;;;;;;6.98;62.69;99287.19;6170527;23;20001;-95
2023/11/17 02:47:03;;;;;;;2.85;1.50;;;;;;;6.95;62.87;99283.16;6148441;23;19996;-95
2023/11/17 02:49:41;;;;;;;2.97;1.67;;;;;;;7.04;62.93;99292.38;6147560;23;20079;-95
2023/11/17 02:52:26;;;;;;;6.57;2.00;;;;;;;7.06;63.32;99300.16;6171497;23;20005;-95
2023/11/17 02:54:51;;;;;;;5.20;2.25;;;;;;;6.81;63.95;99268.50;6145028;23;20004;-96
2023/11/17 02:57:19;;;;;;;4.05;2.03;;;;;;;6.76;64.60;99268.41;6144347;23;20493;-94
2023/11/17 02:59:45;;;;;;;3.15;2.00;;;;;;;6.75;65.10;99278.31;6145316;23;20000;-96
2023/11/17 03:02:15;;;;;;;4.03;2.72;;;;;;;6.50;65.62;99249.31;6143871;23;20043;-95
2023/11/17 03:04:41;;;;;;;3.95;2.58;;;;;;;6.44;65.84;99264.47;6147257;23;20091;-96
2023/11/17 03:07:15;;;;;;;6.22;3.25;;;;;;;6.37;65.88;99244.28;6169912;23;20007;-96
2023/11/17 03:09:42;;;;;;;3.33;2.55;;;;;;;6.28;66.85;99251.91;6147735;23;19985;-96
2023/11/17 03:12:07;;;;;;;6.57;2.97;;;;;;;6.15;67.13;99230.88;6168780;23;19996;-96
2023/11/17 03:14:33;;;;;;;5.82;2.63;;;;;;;6.12;66.86;99228.66;6139185;23;20155;-95
2023/11/17 03:17:02;;;;;;;6.38;2.58;;;;;;;6.32;66.20;99242.34;6139640;23;20039;-96
2023/11/17 03:19:30;;;;;;;8.48;2.70;;;;;;;6.05;66.24;99200.22;6139444;23;20059;-94
2023/11/17 03:21:58;;;;;;;3.90;2.63;;;;;;;6.20;66.25;99214.88;6163741;23;20034;-95
2023/11/17 03:24:27;;;;;;;4.03;2.47;;;;;;;6.20;66.29;99214.88;6163835;23;20028;-95
2023/11/17 03:26:54;;;;;;;6.72;2.70;;;;;;;6.19;66.42;99214.09;6140102;23;20391;-95
2023/11/17 03:29:24;;;;;;;4.38;2.80;;;;;;;6.35;66.14;99211.63;6165403;23;19997;-94
2023/11/17 03:31:53;;;;;;;5.80;2.67;;;;;;;6.22;66.21;99199.41;6140185;23;19981;-95
2023/11/17 03:34:23;;;;;;;5.25;3.00;;;;;;;6.24;65.90;99181.28;6138956;23;20463;-94
2023/11/17 03:36:56;;;;;;;5.93;3.03;;;;;;;6.37;65.91;99204.19;6140808;23;20008;-93
2023/11/17 03:39:24;;;;;;;4.47;2.90;;;;;;;6.48;65.84;99200.63;6141952;23;20005;-95
2023/11/17 03:41:52;;;;;;;2.60;2.17;;;;;;;6.62;65.28;99201.06;6166740;23;20009;-94
2023/11/17 03:44:17;;;;;;;4.38;2.80;;;;;;;6.53;66.13;99178.47;6140537;23;20028;-96
2023/11/17 03:46:51;;;;;;;3.42;2.25;;;;;;;6.78;65.53;99204.75;6139881;23;20053;-94
2023/11/17 03:49:19;;;;;;;3.40;1.90;;;;;;;6.86;64.66;99186.41;6141758;23;20321;-96
2023/11/17 03:51:48;;;;;;;3.10;2.03;;;;;;;6.99;63.67;99181.75;6140294;23;20000;-96
2023/11/17 03:54:16;;;;;;;2.53;1.70;;;;;;;7.16;63.65;99182.50;6164375;23;20001;-96
2023/11/17 03:56:47;;;;;;;2.05;1.52;;;;;;;7.29;62.61;99170.56;6164216;23;20399;-95
2023/11/17 03:59:16;;;;;;;2.00;1.37;;;;;;;7.48;61.85;99169.16;6164651;23;20001;-96
2023/11/17 04:01:42;;;;;;;2.30;1.60;;;;;;;7.65;62.03;99165.56;6140280;23;20640;-96
2023/11/17 04:04:08;;;;;;;2.47;1.20;;;;;;;7.90;60.73;99168.44;6138393;23;20423;-96
2023/11/17 04:06:34;;;;;;;1.48;1.20;;;;;;;8.04;61.00;99168.84;6139281;23;20083;-95
2023/11/17 04:09:07;;;;;;;2.28;1.33;;;;;;;8.07;60.59;99138.00;6139670;23;19981;-94
2023/11/17 04:11:42;;;;;;;1.95;1.40;;;;;;;8.24;59.91;99143.25;6166493;23;20066;-95
2023/11/17 04:14:08;;;;;;;3.58;1.52;;;;;;;8.24;60.22;99113.75;6165110;23;20021;-96
2023/11/17 04:16:34;;;;;;;5.40;1.75;;;;;;;8.41;59.07;99121.63;6140920;23;20028;-96
2023/11/17 04:19:00;;;;;;;2.05;1.42;;;;;;;8.49;59.43;99118.47;6164584;23;19997;-95
2023/11/17 04:21:26;;;;;;;1.77;1.17;;;;;;;8.82;59.15;99152.16;6139514;23;20032;-95
2023/11/17 04:23:53;;;;;;;4.47;1.15;;;;;;;8.77;58.90;99129.84;6138223;23;20041;-95
2023/11/17 04:26:19;;;;;;;2.45;1.40;;;;;;;8.95;58.94;99142.81;6140179;23;20063;-96
2023/11/17 04:28:48;;;;;;;1.80;1.33;;;;;;;8.99;58.26;99138.53;6163024;23;20004;-96
2023/11/17 04:31:14;;;;;;;3.13;1.30;;;;;;;9.05;58.62;99131.31;6139677;23;20348;-94
2023/11/17 04:33:40;;;;;;;2.35;1.23;;;;;;;9.09;58.33;99122.44;6137453;23;19997;-92
2023/11/17 04:36:10;;;;;;;5.15;1.33;;;;;;;9.19;57.95;99116.28;6138590;23;20448;-94
2023/11/17 04:38:36;;;;;;;2.20;1.20;;;;;;;9.36;57.56;99128.66;6140851;23;20005;-94
2023/11/17 04:41:02;;;;;;;2.10;1.40;;;;;;;9.38;57.84;99118.47;6142582;23;20009;-95
2023/11/17 04:43:28;;;;;;;3.38;1.40;;;;;;;9.40;56.98;99116.31;6140902;23;20001;-94
2023/11/17 04:45:54;;;;;;;4.25;1.55;;;;;;;9.34;57.23;99096.72;6139851;23;20081;-95
2023/11/17 04:48:20;;;;;;;12.88;2.53;;;;;;;9.44;57.19;99102.09;6140318;23;20080;-96
2023/11/17 04:50:46;;;;;;;3.97;1.42;;;;;;;9.55;56.92;99113.66;6138297;23;20005;-92
2023/11/17 04:53:11;;;;;;;6.50;1.40;;;;;;;9.67;56.62;99122.25;6138066;23;20005;-95
2023/11/17 04:55:37;;;;;;;2.10;1.33;;;;;;;9.65;56.09;99110.97;6141704;23;20063;-94
2023/11/17 04:58:04;;;;;;;3.85;1.65;;;;;;;9.69;56.10;99122.81;6139532;23;20001;-94
2023/11/17 05:00:33;;;;;;;2.28;1.42;;;;;;;9.81;56.06;99127.88;6140326;23;20016;-96
2023/11/17 05:03:02;;;;;;;2.35;1.38;;;;;;;9.76;56.09;99110.97;6143824;23;20088;-95
2023/11/17 05:05:28;;;;;;;2.85;1.25;;;;;;;9.72;55.80;99105.31;6165420;23;20019;-95
2023/11/17 05:07:56;;;;;;;3.15;1.42;;;;;;;9.72;55.59;99102.63;6154630;23;20401;-95
2023/11/17 05:10:29;;;;;;;3.35;1.48;;;;;;;9.77;55.77;99104.50;6165938;23;20016;-94
2023/11/17 05:13:22;;;;;;;2.95;2.22;;;;;;;9.93;55.44;99113.38;6146434;23;20021;-94
2023/11/17 05:16:16;;;;;;;3.22;1.50;;;;;;;9.84;55.51;99097.00;6176587;23;19997;-94
2023/11/17 05:18:46;;;;;;;4.90;2.00;;;;;;;9.79;55.65;99105.03;6169839;23;20017;-95
2023/11/17 05:21:13;;;;;;;2.45;1.60;;;;;;;10.03;55.76;99126.81;6149527;23;20032;-95
2023/11/17 05:23:48;;;;;;;2.97;2.42;;;;;;;9.91;55.74;99109.06;6170326;23;20008;-96
2023/11/17 05:26:13;;;;;;;3.33;2.28;;;;;;;9.98;55.68;99110.66;6166775;23;20076;-96
2023/11/17 05:28:39;;;;;;;3.25;1.70;;;;;;;10.04;55.20;99113.09;6167460;23;20417;-95
2023/11/17 05:31:08;;;;;;;4.28;2.30;;;;;;;10.00;55.66;99114.72;6170595;23;20004;-95
2023/11/17 05:33:33;;;;;;;5.63;2.00;;;;;;;9.99;55.26;99088.09;6169335;23;20005;-95
2023/11/17 05:36:02;;;;;;;6.18;2.28;;;;;;;10.05;55.07;99090.50;6171436;23;20009;-95
2023/11/17 05:38:30;;;;;;;5.60;1.95;;;;;;;10.24;54.39;99104.16;6147199;23;20044;-96
2023/11/17 05:40:57;;;;;;;8.05;4.75;;;;;;;10.33;54.37;99115.22;6146000;23;20004;-95
2023/11/17 05:46:25;;;;;;;3.22;2.05;;;;;;;10.28;53.39;99088.28;6121629;23;20001;-95
2023/11/17 05:49:04;;;;;;;4.18;1.65;;;;;;;10.20;53.63;99086.16;6117498;23;20444;-96
2023/11/17 05:52:19;;;;;;;4.18;2.88;;;;;;;10.55;53.07;99106.81;6176234;22;20017;-95
2023/11/17 06:00:55;;;;;;;6.32;4.35;;;;;;;10.64;52.57;99078.22;6220442;22;20029;-94
2023/11/17 06:04:04;;;;;;;6.43;2.97;;;;;;;10.70;52.01;99065.56;6173431;23;20007;-96
2023/11/17 06:10:07;;;;;;;4.32;2.60;;;;;;;10.83;51.63;99067.66;6046996;23;20111;-93
2023/11/17 06:12:34;;;;;;;9.90;4.40;;;;;;;10.95;51.61;99070.00;6145519;23;20013;-93
2023/11/17 06:15:01;;;;;;;6.78;2.10;;;;;;;11.04;51.64;99065.66;6147858;23;20094;-93
2023/11/17 06:17:26;;;;;;;5.00;2.13;;;;;;;11.22;51.04;99072.25;6170337;23;20012;-96
2023/11/17 06:19:52;;;;;;;5.55;3.22;;;;;;;11.16;51.04;99043.72;6146912;23;20008;-95
2023/11/17 06:22:18;;;;;;;7.20;4.90;;;;;;;11.23;51.18;99036.16;6147479;23;20023;-95
2023/11/17 06:24:44;;;;;;;6.07;1.60;;;;;;;11.49;50.83;99062.91;6177303;23;20047;-96
2023/11/17 06:27:41;;;;;;;3.97;2.50;;;;;;;11.41;50.15;99028.44;6156954;23;20059;-96
2023/11/17 06:30:21;;;;;;;2.58;1.50;;;;;;;11.47;50.25;99038.09;6209657;23;20062;-94
2023/11/17 06:32:51;;;;;;;4.13;1.60;;;;;;;11.50;50.60;99042.94;6156064;23;20476;-94
2023/11/17 06:35:38;;;;;;;2.78;1.60;;;;;;;11.51;50.53;99025.69;6178678;22;20432;-94
2023/11/17 06:38:31;;;;;;;2.40;1.80;;;;;;;11.55;50.72;99021.31;6149757;23;20498;-95
2023/11/17 06:40:59;;;;;;;3.60;1.60;;;;;;;11.73;51.01;99030.59;6120227;23;20084;-94
2023/11/17 06:43:47;;;;;;;3.83;2.33;;;;;;;11.81;51.01;99035.38;6165404;23;20012;-96
2023/11/17 06:48:51;;;;;;;6.70;2.53;;;;;;;12.00;50.44;99013.09;6222311;22;20017;-95
2023/11/17 06:51:25;;;;;;;5.75;2.88;;;;;;;12.10;50.56;99015.69;6202359;23;19996;-95
2023/11/17 06:54:49;;;;;;;8.40;3.00;;;;;;;12.09;50.83;99003.28;6155217;23;19997;-94
2023/11/17 06:57:15;;;;;;;5.05;2.47;;;;;;;12.15;50.53;98995.94;6156945;23;20038;-92
2023/11/17 06:59:41;;;;;;;3.00;2.03;;;;;;;12.20;50.74;98985.06;6143330;23;20010;-92
2023/11/17 07:02:10;;;;;;;3.38;1.98;;;;;;;12.51;50.37;99007.09;6170377;23;19997;-96
2023/11/17 07:04:42;;;;;;;5.35;3.67;;;;;;;12.55;50.24;98981.09;6145899;23;20324;-94
2023/11/17 07:07:08;;;;;;;8.43;6.20;;;;;;;12.83;50.40;99002.88;6146394;23;20001;-91
2023/11/17 07:09:36;;;;;;;5.93;1.80;;;;;;;13.05;48.86;99008.50;6200513;23;20001;-91
2023/11/17 07:12:03;;;;;;;4.10;2.78;;;;;;;13.38;48.61;99035.56;6144653;23;20004;-92
2023/11/17 07:14:30;;;;;;;3.63;2.33;;;;;;;13.47;48.35;99011.38;6142384;23;20432;-93
2023/11/17 07:17:06;;;;;;;;;;;;;;;;;;;;;
2023/11/17 07:19:58;;;;;;;5.88;2.80;;;;;;;13.72;47.66;99007.44;6176151;23;20038;-95
2023/11/17 07:25:49;;;;;;;3.13;2.42;;;;;;;13.82;46.60;99004.53;6221100;22;20021;-96
2023/11/17 07:28:30;;;;;;;10.50;5.47;;;;;;;14.01;46.45;99017.16;6229143;23;20007;-96
2023/11/17 07:31:10;;;;;;;;;;;;;;;14.02;46.55;99002.53;6205036;23;20004;-96
2023/11/17 07:33:48;;;;;;;22.58;3.17;;;;;;;13.75;46.42;98985.97;6222090;23;20294;-94
2023/11/17 07:36:28;;;;;;;3.47;1.70;;;;;;;13.70;47.14;98977.97;6174769;23;20036;-93
2023/11/17 07:42:16;;;;;;;2.40;1.77;;;;;;;13.93;46.51;98984.28;6079042;23;20365;-94
2023/11/17 07:44:43;;;;;;;4.38;2.10;;;;;;;13.79;46.88;98959.13;6053279;23;20003;-95
2023/11/17 07:47:12;;;;;;;5.57;2.40;;;;;;;13.97;45.96;98964.75;6025026;23;20394;-94
2023/11/17 07:49:38;;;;;;;8.73;5.32;;;;;;;13.94;45.50;98963.44;6027679;23;20086;-89
2023/11/17 07:52:09;;;;;;;5.25;2.42;;;;;;;14.21;45.45;98968.03;6042515;23;20034;-90
2023/11/17 07:54:42;;;;;;;4.63;2.20;;;;;;;14.38;45.12;98967.44;6066417;23;20010;-95
2023/11/17 07:57:34;;;;;;;3.33;1.77;;;;;;;14.43;44.41;98963.81;6049195;23;20521;-94
2023/11/17 08:00:09;;;;;;;4.00;2.28;;;;;;;14.56;44.33;98973.84;6053684;23;20007;-92
2023/11/17 08:02:46;;;;;;;4.82;1.60;;;;;;;14.62;43.76;98967.19;6078333;23;20030;-96
2023/11/17 08:05:14;;;;;;;4.20;2.20;;;;;;;14.79;43.73;98963.84;6076486;23;20013;-93
2023/11/17 08:08:10;;;;;;;;;;;;;;;;;;;;;
2023/11/17 08:11:43;;;;;;;6.00;2.63;;;;;;;15.05;42.87;98950.50;6114852;23;20062;-96
2023/11/17 08:14:11;;;;;;;7.65;3.05;;;;;;;15.19;41.68;98955.03;6142624;23;20009;-92
2023/11/17 08:17:16;;;;;;;;;;;;;;;;;;;;;
2023/11/17 08:19:42;;;;;;;3.67;2.95;;;;;;;15.24;41.70;98955.72;6171664;23;20032;-91
2023/11/17 08:22:08;;;;;;;3.20;2.00;;;;;;;15.30;41.62;98940.91;6135108;23;20033;-91
2023/11/17 08:24:43;;;;;;;6.25;3.60;;;;;;;15.43;41.45;98960.94;6165992;23;20051;-94
2023/11/17 08:27:22;;;;;;;4.68;1.95;;;;;;;15.39;40.85;98959.94;6146236;23;20039;-94
2023/11/17 08:30:49;;;;;;;7.22;3.90;;;;;;;15.52;41.46;98969.13;6150891;23;20007;-96
2023/11/17 08:40:32;;;;;;;4.55;2.83;;;;;;;15.12;42.34;98901.25;6154385;23;20063;-92
2023/11/17 08:46:14;;;;;;;;;;;;;;;15.36;41.94;98930.75;6139415;23;20001;-94
2023/11/17 08:48:42;;;;;;;7.88;5.03;;;;;;;15.29;42.41;98903.25;6185375;23;20251;-91
2023/11/17 08:51:10;;;;;;;3.65;2.55;;;;;;;15.28;41.99;98888.88;6160085;23;20052;-90
2023/11/17 08:53:37;;;;;;;4.50;2.53;;;;;;;15.36;41.38;98881.91;6162699;23;19997;-95
2023/11/17 08:56:04;;;;;;;6.30;2.17;;;;;;;15.58;41.44;98900.03;6138382;23;20004;-91
2023/11/17 08:58:33;;;;;;;4.95;1.85;;;;;;;15.72;41.12;98900.75;6187740;23;20021;-91
2023/11/17 09:00:58;;;;;;;8.25;3.22;;;;;;;15.51;41.03;98873.34;6163937;23;20004;-92
2023/11/17 09:03:27;;;;;;;7.13;4.38;;;;;;;15.55;41.13;98887.88;6164273;23;20355;-92
2023/11/17 09:06:15;;;;;;;7.68;3.00;;;;;;;15.59;40.93;98873.72;6138412;23;20005;-91
2023/11/17 09:08:53;;;;;;;6.93;2.10;;;;;;;15.65;41.39;98878.69;6141134;23;20079;-93
2023/11/17 09:11:28;;;;;;;3.70;1.85;;;;;;;15.62;41.15;98852.16;6191260;23;20031;-91
2023/11/17 09:13:53;;;;;;;3.63;1.52;;;;;;;15.89;40.57;98853.84;6165098;23;20051;-91
2023/11/17 09:16:23;;;;;;;3.33;2.10;;;;;;;16.02;40.46;98846.72;6138020;23;20013;-90
2023/11/17 09:18:50;;;;;;;3.30;1.80;;;;;;;16.29;39.42;98872.78;6186017;23;20008;-91
2023/11/17 09:21:25;;;;;;;4.20;1.60;;;;;;;16.22;38.43;98853.41;6164190;23;20135;-90
2023/11/17 09:23:52;;;;;;;8.57;3.63;;;;;;;16.40;38.13;98875.19;6137630;23;20005;-90
2023/11/17 09:26:20;;;;;;;8.73;2.92;;;;;;;16.42;38.30;98856.63;6167613;23;20044;-90
2023/11/17 09:28:47;;;;;;;3.65;2.20;;;;;;;16.49;38.45;98856.94;6193079;23;20491;-89
2023/11/17 09:31:13;;;;;;;4.10;2.30;;;;;;;16.59;38.24;98853.13;6167169;23;20023;-91
2023/11/17 09:33:50;;;;;;;4.13;2.20;;;;;;;16.51;37.77;98825.59;6190834;23;20000;-91
2023/11/17 09:36:21;;;;;;;4.30;2.20;;;;;;;16.74;37.56;98836.28;6191232;23;20005;-94
2023/11/17 09:38:48;;;;;;;6.38;3.08;;;;;;;16.77;38.27;98828.28;6170348;23;20005;-93
2023/11/17 09:41:18;;;;;;;8.57;4.82;;;;;;;16.98;37.72;98849.41;6199361;23;20008;-93
2023/11/17 09:43:59;;;;;;;7.45;3.38;;;;;;;16.80;38.00;98820.63;6170115;23;20012;-93
2023/11/17 09:46:31;;;;;;;6.95;2.00;;;;;;;16.83;37.89;98817.28;6175220;23;20444;-92
2023/11/17 09:49:02;;;;;;;2.85;1.70;;;;;;;16.83;37.53;98803.66;6146256;23;20005;-93
2023/11/17 09:51:37;;;;;;;6.47;2.10;;;;;;;17.15;37.44;98835.75;6175436;23;20005;-93
2023/11/17 09:54:04;;;;;;;5.30;1.60;;;;;;;16.96;37.20;98816.28;6172724;23;20011;-92
2023/11/17 09:56:30;;;;;;;2.78;1.80;;;;;;;17.04;36.43;98815.47;6143013;23;20000;-93
2023/11/17 09:59:07;;;;;;;4.97;1.50;;;;;;;17.13;35.80;98812.72;6170508;23;20448;-94
2023/11/17 10:01:44;;;;;;;4.50;1.60;;;;;;;17.09;36.83;98790.78;6174381;23;20028;-94
2023/11/17 10:04:21;;;;;;;2.90;1.80;;;;;;;17.35;36.90;98815.19;6156410;23;20004;-95
2023/11/17 10:07:32;;;;;;;3.42;1.40;;;;;;;17.38;35.84;98790.03;6177719;23;19996;-96
2023/11/17 10:10:14;;;;;;;4.53;2.47;;;;;;;17.36;35.96;98786.84;6176842;23;20000;-91
2023/11/17 10:12:43;;;;;;;2.42;1.30;;;;;;;17.44;35.45;98795.28;6169491;23;20472;-92
2023/11/17 10:16:09;;;;;;;2.80;1.90;;;;;;;17.51;34.90;98795.56;6097459;23;20073;-96
2023/11/17 10:19:18;;;;;;;5.50;1.75;;;;;;;17.33;34.71;98751.34;6081027;23;20033;-96
2023/11/17 10:28:31;;;;;;;2.50;1.77;;;;;;;17.35;35.63;98762.69;6228945;22;20036;-95
2023/11/17 10:31:23;;;;;;;4.53;1.80;;;;;;;17.21;36.25;98753.97;6154763;23;20009;-95
2023/11/17 10:37:16;;;;;;;10.05;2.72;;;;;;;17.08;37.08;98767.44;6229948;22;19958;-93
2023/11/17 10:39:53;;;;;;;4.88;2.13;;;;;;;16.95;37.22;98747.50;6180408;23;20035;-93
2023/11/17 10:42:28;;;;;;;4.95;3.30;;;;;;;17.03;37.29;98764.91;6146691;23;20000;-94
2023/11/17 10:45:25;;;;;;;8.63;2.78;;;;;;;16.95;37.39;98744.78;6148075;23;20012;-94
2023/11/17 10:47:56;;;;;;;3.97;2.42;;;;;;;17.17;37.68;98765.47;6164090;23;20003;-95
2023/11/17 10:50:32;;;;;;;;;;;;;;;;;;;;;
2023/11/17 10:53:20;;;;;;;9.50;3.50;;;;;;;17.05;38.39;98745.53;6178058;23;20016;-93
2023/11/17 10:55:53;;;;;;;4.78;2.47;;;;;;;17.15;37.83;98737.00;6147953;23;19996;-95
2023/11/17 10:58:19;;;;;;;5.15;2.42;;;;;;;17.21;37.61;98718.59;6173568;23;20007;-95
2023/11/17 11:00:51;;;;;;;7.72;2.90;;;;;;;17.34;37.21;98726.50;6147078;23;20032;-93
2023/11/17 11:03:29;;;;;;;7.13;2.13;;;;;;;17.53;37.60;98715.16;6149969;23;20499;-93
2023/11/17 11:06:00;;;;;;;4.73;2.80;;;;;;;17.68;36.39;98710.25;6152446;23;20011;-94
2023/11/17 11:08:33;;;;;;;8.30;2.28;;;;;;;17.73;34.76;98688.28;6144981;23;20239;-93
2023/11/17 11:11:04;;;;;;;2.53;1.80;;;;;;;18.01;34.61;98694.00;6146444;23;20497;-94
2023/11/17 11:14:24;;;;;;;4.97;1.50;;;;;;;18.20;34.33;98688.06;6147421;23;20000;-95
2023/11/17 11:17:11;;;;;;;3.38;1.05;;;;;;;18.35;33.41;98686.63;6096233;23;20016;-94
2023/11/17 11:19:48;;;;;;;5.63;3.30;;;;;;;18.56;32.55;98700.19;6118916;23;20001;-94
2023/11/17 11:25:50;;;;;;;4.03;1.60;;;;;;;18.45;32.90;98693.56;6103015;23;20039;-95
2023/11/17 11:28:25;;;;;;;4.32;2.13;;;;;;;18.33;33.35;98673.34;6135318;23;20005;-95
2023/11/17 11:32:07;;;;;;;5.97;2.30;;;;;;;18.71;33.50;98712.38;6113542;23;20356;-95
2023/11/17 11:34:31;;;;;;;3.97;1.65;;;;;;;18.74;33.35;98698.84;6144979;23;20035;-95
2023/11/17 11:36:57;;;;;;;3.90;1.50;;;;;;;18.65;33.04;98654.53;6148506;23;20044;-95
2023/11/17 11:45:57;;;;;;;79.75;43.42;;;;;;;19.06;32.43;98660.91;6148541;23;20139;-95
2023/11/17 11:48:40;;;;;;;;;;;;;;;;;;;;;
2023/11/17 11:51:15;;;;;;;9.32;3.92;;;;;;;19.18;32.11;98663.63;6174788;23;20046;-92
2023/11/17 11:54:15;;;;;;;6.80;2.10;;;;;;;19.32;32.09;98660.56;6142195;23;20089;-95
2023/11/17 11:56:55;;;;;;;4.03;1.70;;;;;;;19.41;31.60;98659.63;6184639;23;20000;-93
2023/11/17 11:59:21;;;;;;;9.93;3.50;;;;;;;19.26;31.81;98647.47;6147195;23;20005;-95
2023/11/17 12:02:04;;;;;;;4.88;1.85;;;;;;;19.33;31.75;98675.78;6144872;23;20024;-94
2023/11/17 12:04:33;;;;;;;2.63;1.10;;;;;;;19.16;30.88;98667.84;6147913;23;20087;-93
2023/11/17 12:10:00;;;;;;;4.20;1.88;;;;;;;18.97;31.87;98660.25;6182395;23;20002;-92
2023/11/17 12:12:29;;;;;;;1.80;1.40;;;;;;;18.90;32.06;98674.44;6151081;23;19996;-95
2023/11/17 12:15:00;;;;;;;3.20;1.65;;;;;;;18.79;32.38;98673.31;6169206;23;20000;-92
2023/11/17 12:17:45;;;;;;;3.47;2.55;;;;;;;18.71;32.75;98683.16;6169948;23;20336;-93
2023/11/17 12:20:24;;;;;;;3.63;1.80;;;;;;;18.70;32.89;98705.34;6151110;23;20001;-90
2023/11/17 12:23:03;;;;;;;4.03;2.75;;;;;;;18.49;33.38;98697.22;6142913;23;20012;-94
2023/11/17 12:25:29;;;;;;;6.20;3.33;;;;;;;18.35;34.56;98681.97;6143186;23;20004;-93
2023/11/17 12:27:58;;;;;;;6.25;3.65;;;;;;;18.45;35.23;98712.66;6167485;23;20335;-94
2023/11/17 12:30:27;;;;;;;8.07;3.13;;;;;;;18.16;36.83;98695.31;6141226;23;20008;-94
2023/11/17 12:32:57;;;;;;;6.50;3.78;;;;;;;18.03;39.10;98721.69;6143022;23;20001;-93
2023/11/17 12:35:25;;;;;;;6.75;3.72;;;;;;;17.49;41.25;98700.66;6143096;23;20083;-92
2023/11/17 12:37:54;;;;;;;16.83;10.63;;;;;;;17.20;43.40;98692.50;6143456;23;20001;-95
2023/11/17 12:40:36;;;;;;;5.63;3.42;;;;;;;16.78;44.03;98682.28;6167578;23;20000;-92
2023/11/17 12:43:02;;;;;;;8.10;3.20;;;;;;;16.71;44.51;98682.00;6146038;23;20004;-92
2023/11/17 12:45:28;;;;;;;8.50;3.67;;;;;;;16.65;44.50;98675.94;6166690;23;20010;-92
2023/11/17 12:47:59;;;;;;;6.63;3.13;;;;;;;16.49;44.56;98672.94;6168562;23;20479;-92
2023/11/17 12:50:41;;;;;;;6.15;3.42;;;;;;;16.22;46.79;98655.13;6167793;23;19997;-95
2023/11/17 12:53:07;;;;;;;5.53;3.15;;;;;;;16.08;46.68;98660.75;6143934;23;20001;-93
2023/11/17 12:56:35;;;;;;;;;;;;;;;;;;;;;
2023/11/17 12:59:49;;;;;;;;;;;;;;;;;;;;;
2023/11/17 13:02:40;;;;;;;7.50;4.40;;;;;;;15.62;49.67;98688.53;6201726;23;20035;-93
2023/11/17 13:05:26;;;;;;;8.48;6.40;;;;;;;15.43;50.25;98673.34;6176050;23;20008;-92
2023/11/17 13:08:17;;;;;;;5.88;4.15;;;;;;;15.39;52.04;98674.31;6198339;23;20003;-93
2023/11/17 13:21:00;;;;;;;;;;;;;;;;;;;;;
2023/11/17 13:23:37;;;;;;;;;;;;;;;;;;;;;
2023/11/17 13:29:29;;;;;;;6.60;3.03;;;;;;;14.59;53.19;98656.25;6033697;23;20007;-96